createdAt,value
2022-10-12T00:08:42.445Z,4.10
2022-10-12T00:11:16.852Z,2.40
2022-10-12T00:13:45.161Z,4.00
2022-10-12T00:16:15.604Z,0.70
2022-10-12T00:21:15.839Z,2.50
2022-10-12T00:23:45.551Z,0.50
2022-10-12T00:26:18.739Z,2.50
2022-10-12T00:31:18.792Z,1.20
2022-10-12T00:36:20.145Z,2.00
2022-10-12T00:38:49.867Z,2.40
2022-10-12T00:41:22.718Z,2.40
2022-10-12T00:43:55.426Z,3.40
2022-10-12T00:46:33.407Z,2.50
2022-10-12T00:49:13.556Z,2.60
2022-10-12T00:51:45.654Z,2.60
2022-10-12T00:54:17.774Z,2.70
2022-10-12T00:56:47.992Z,2.60
2022-10-12T00:59:22.203Z,2.60
2022-10-12T01:04:19.823Z,4.40
2022-10-12T01:19:44.867Z,4.00
2022-10-12T01:22:18.886Z,2.30
2022-10-12T01:24:53.599Z,2.20
2022-10-12T01:27:48.597Z,2.20
2022-10-12T01:30:23.008Z,2.20
2022-10-12T01:33:18.681Z,2.10
2022-10-12T01:35:57.166Z,2.20
2022-10-12T01:38:40.660Z,2.20
2022-10-12T01:43:46.089Z,3.20
2022-10-12T01:46:52.415Z,2.10
2022-10-12T01:49:25.937Z,2.20
2022-10-12T01:52:15.476Z,2.20
2022-10-12T01:55:17.584Z,2.10
2022-10-12T01:58:01.841Z,2.20
2022-10-12T02:00:35.527Z,4.00
2022-10-12T02:08:25.575Z,2.10
2022-10-12T02:11:01.359Z,2.30
2022-10-12T02:13:35.538Z,2.40
2022-10-12T02:18:43.772Z,2.30
2022-10-12T02:21:17.453Z,2.30
2022-10-12T02:23:46.736Z,2.30
2022-10-12T02:26:16.655Z,3.90
2022-10-12T02:28:46.580Z,0.70
2022-10-12T02:31:24.555Z,1.20
2022-10-12T02:34:01.824Z,4.10
2022-10-12T02:36:37.349Z,0.90
2022-10-12T02:39:11.688Z,2.90
2022-10-12T02:41:47.651Z,1.70
2022-10-12T02:46:50.589Z,2.90
2022-10-12T02:49:24.122Z,0.10
2022-10-12T02:51:52.806Z,0.60
2022-10-12T02:56:50.184Z,2.20
2022-10-12T02:59:19.679Z,2.60
2022-10-12T03:01:48.110Z,2.10
2022-10-12T03:09:15.219Z,0.20
2022-10-12T03:14:14.796Z,0.50
2022-10-12T03:24:11.048Z,2.30
2022-10-12T03:26:39.204Z,4.10
2022-10-12T03:29:09.242Z,3.40
2022-10-12T03:34:05.959Z,2.50
2022-10-12T03:36:34.193Z,3.90
2022-10-12T03:41:32.125Z,2.40
2022-10-12T03:44:00.308Z,0.60
2022-10-12T03:46:28.407Z,1.80
2022-10-12T03:48:56.532Z,4.40
2022-10-12T03:51:24.802Z,4.00
2022-10-12T03:56:21.394Z,2.80
2022-10-12T03:58:50.851Z,0.50
2022-10-12T04:06:15.988Z,0.80
2022-10-12T04:11:20.258Z,3.50
2022-10-12T04:16:18.268Z,4.20
2022-10-12T04:31:12.133Z,2.50
2022-10-12T04:33:40.256Z,0.60
2022-10-12T04:36:09.083Z,3.80
2022-10-12T04:38:37.238Z,0.50
2022-10-12T04:41:05.839Z,3.90
2022-10-12T04:51:00.772Z,4.00
2022-10-12T04:55:58.018Z,3.60
2022-10-12T04:58:26.213Z,1.10
2022-10-12T05:05:53.027Z,2.70
2022-10-12T05:10:49.677Z,3.70
2022-10-12T05:23:13.998Z,1.90
2022-10-12T05:30:40.747Z,2.00
2022-10-12T05:38:05.816Z,2.80
2022-10-12T05:40:35.334Z,2.10
2022-10-12T05:43:03.583Z,1.60
2022-10-12T05:55:25.798Z,3.10
2022-10-12T05:57:55.219Z,2.30
2022-10-12T06:15:16.142Z,2.80
2022-10-12T06:20:13.176Z,4.60
2022-10-12T06:22:41.511Z,1.00
2022-10-12T06:25:10.366Z,4.20
2022-10-12T06:30:08.322Z,5.40
2022-10-12T06:32:38.080Z,1.80
2022-10-12T06:35:08.040Z,5.20
2022-10-12T06:37:51.529Z,2.50
2022-10-12T06:42:52.713Z,4.80
2022-10-12T06:45:23.001Z,3.00
2022-10-12T06:47:52.426Z,5.40
2022-10-12T06:50:20.598Z,7.60
2022-10-12T06:55:17.549Z,7.00
2022-10-12T06:57:45.725Z,4.30
2022-10-12T07:00:15.330Z,7.20
2022-10-12T07:05:13.372Z,7.00
2022-10-12T07:07:41.649Z,5.80
2022-10-12T07:10:10.678Z,9.10
2022-10-12T07:12:39.981Z,6.90
2022-10-12T07:15:09.673Z,9.60
2022-10-12T07:17:38.254Z,8.50
2022-10-12T07:20:07.633Z,9.70
2022-10-12T07:22:37.133Z,10.90
2022-10-12T07:25:06.378Z,11.60
2022-10-12T07:27:34.663Z,12.40
2022-10-12T07:30:03.042Z,11.70
2022-10-12T07:32:31.162Z,9.30
2022-10-12T07:34:59.284Z,13.40
2022-10-12T07:39:57.708Z,11.80
2022-10-12T07:42:26.249Z,11.50
2022-10-12T07:44:54.386Z,11.70
2022-10-12T07:47:22.579Z,11.70
2022-10-12T07:49:50.728Z,12.50
2022-10-12T07:52:18.869Z,13.40
2022-10-12T07:57:16.888Z,16.10
2022-10-12T07:59:45.120Z,14.20
2022-10-12T08:02:13.619Z,13.50
2022-10-12T08:04:41.788Z,13.60
2022-10-12T08:07:09.923Z,15.10
2022-10-12T08:12:07.394Z,16.30
2022-10-12T08:14:37.164Z,17.30
2022-10-12T08:22:04.923Z,17.50
2022-10-12T08:24:33.109Z,15.20
2022-10-12T08:27:01.716Z,18.60
2022-10-12T08:29:29.908Z,16.70
2022-10-12T08:32:01.708Z,17.60
2022-10-12T08:36:59.526Z,15.60
2022-10-12T08:39:27.733Z,15.70
2022-10-12T08:42:10.504Z,15.90
2022-10-12T08:45:02.732Z,15.70
2022-10-12T08:47:40.794Z,16.90
2022-10-12T08:50:19.216Z,18.40
2022-10-12T08:52:55.742Z,17.70
2022-10-12T08:55:35.567Z,19.90
2022-10-12T08:58:04.250Z,18.30
2022-10-12T09:00:35.615Z,17.10
2022-10-12T09:03:19.368Z,19.00
2022-10-12T09:05:53.754Z,18.80
2022-10-12T09:08:35.438Z,21.30
2022-10-12T09:11:19.539Z,18.50
2022-10-12T09:13:55.767Z,20.10
2022-10-12T09:16:26.813Z,20.70
2022-10-12T09:18:59.860Z,19.00
2022-10-12T09:21:31.151Z,20.70
2022-10-12T09:24:00.087Z,18.50
2022-10-12T09:26:39.930Z,20.30
2022-10-12T09:29:28.453Z,18.40
2022-10-12T09:32:41.943Z,19.60
2022-10-12T09:35:15.071Z,16.80
2022-10-12T09:37:45.827Z,16.40
2022-10-12T09:40:22.643Z,15.50
2022-10-12T09:42:51.668Z,16.10
2022-10-12T09:45:22.801Z,15.60
2022-10-12T09:48:20.433Z,15.70
2022-10-12T09:50:56.973Z,15.50
2022-10-12T09:53:36.037Z,18.20
2022-10-12T09:56:11.727Z,16.80
2022-10-12T09:58:52.517Z,19.40
2022-10-12T10:01:27.128Z,19.70
2022-10-12T10:04:16.061Z,19.00
2022-10-12T10:06:47.900Z,21.60
2022-10-12T10:09:32.998Z,20.70
2022-10-12T10:12:18.683Z,21.10
2022-10-12T10:14:46.950Z,22.40
2022-10-12T10:17:18.320Z,20.10
2022-10-12T10:19:51.462Z,20.90
2022-10-12T10:22:22.372Z,20.00
2022-10-12T10:24:59.912Z,19.70
2022-10-12T10:27:34.032Z,20.00
2022-10-12T10:30:29.778Z,20.50
2022-10-12T10:33:15.948Z,22.30
2022-10-12T10:36:04.193Z,20.80
2022-10-12T10:38:50.043Z,20.60
2022-10-12T10:41:19.865Z,22.70
2022-10-12T10:43:49.476Z,20.30
2022-10-12T10:46:25.051Z,23.00
2022-10-12T10:48:58.667Z,23.00
2022-10-12T10:51:47.675Z,22.90
2022-10-12T10:54:30.087Z,23.20
2022-10-12T10:57:03.158Z,21.90
2022-10-12T10:59:46.593Z,21.30
2022-10-12T11:02:28.525Z,21.10
2022-10-12T11:05:08.862Z,20.50
2022-10-12T11:07:43.815Z,19.10
2022-10-12T11:13:00.499Z,19.40
2022-10-12T11:15:36.228Z,20.50
2022-10-12T11:18:13.597Z,21.00
2022-10-12T11:23:30.991Z,21.70
2022-10-12T11:26:20.744Z,21.60
2022-10-12T11:28:49.431Z,20.30
2022-10-12T11:31:24.215Z,19.80
2022-10-12T11:33:55.155Z,20.40
2022-10-12T11:36:30.848Z,20.20
2022-10-12T11:39:06.921Z,20.90
2022-10-12T11:42:03.270Z,20.20
2022-10-12T11:44:43.489Z,20.20
2022-10-12T11:47:20.034Z,20.70
2022-10-12T11:49:56.892Z,20.80
2022-10-12T11:52:38.190Z,20.80
2022-10-12T11:55:28.160Z,21.50
2022-10-12T11:58:09.059Z,22.00
2022-10-12T12:00:57.927Z,20.40
2022-10-12T12:03:35.057Z,20.20
2022-10-12T12:06:50.752Z,19.30
2022-10-12T12:09:40.479Z,19.70
2022-10-12T12:12:22.614Z,21.50
2022-10-12T12:15:23.538Z,21.50
2022-10-12T12:18:14.696Z,20.60
2022-10-12T12:21:06.498Z,20.40
2022-10-12T12:23:41.572Z,19.20
2022-10-12T12:26:18.061Z,18.50
2022-10-12T12:28:49.653Z,18.80
2022-10-12T12:31:27.448Z,18.80
2022-10-12T12:34:06.401Z,19.50
2022-10-12T12:36:37.905Z,19.90
2022-10-12T12:39:09.578Z,21.90
2022-10-12T12:41:56.436Z,21.20
2022-10-12T12:44:41.191Z,22.50
2022-10-12T12:47:45.462Z,23.10
2022-10-12T12:50:37.560Z,22.20
2022-10-12T12:53:13.936Z,22.40
2022-10-12T12:56:00.787Z,22.70
2022-10-12T12:59:03.364Z,22.70
2022-10-12T13:01:55.004Z,23.50
2022-10-12T13:04:50.059Z,22.90
2022-10-12T13:07:48.712Z,23.10
2022-10-12T13:10:30.339Z,23.10
2022-10-12T13:13:24.739Z,22.20
2022-10-12T13:16:36.701Z,22.60
2022-10-12T13:19:11.822Z,23.00
2022-10-12T13:21:45.759Z,23.10
2022-10-12T13:24:22.080Z,23.10
2022-10-12T13:26:53.385Z,23.10
2022-10-12T13:29:29.683Z,22.40
2022-10-12T13:32:03.966Z,22.20
2022-10-12T13:34:43.243Z,22.20
2022-10-12T13:37:15.940Z,22.40
2022-10-12T13:39:48.201Z,22.50
2022-10-12T13:42:24.472Z,22.70
2022-10-12T13:44:52.925Z,23.20
2022-10-12T13:47:27.387Z,23.30
2022-10-12T13:49:57.073Z,23.10
2022-10-12T13:52:32.351Z,23.00
2022-10-12T13:55:01.623Z,23.10
2022-10-12T13:57:36.340Z,22.90
2022-10-12T14:00:18.685Z,23.50
2022-10-12T14:02:57.210Z,23.40
2022-10-12T14:05:28.732Z,23.50
2022-10-12T14:08:06.148Z,22.80
2022-10-12T14:10:37.871Z,23.10
2022-10-12T14:13:07.420Z,23.50
2022-10-12T14:15:39.473Z,23.20
2022-10-12T14:18:37.674Z,23.50
2022-10-12T14:21:22.345Z,23.10
2022-10-12T14:23:55.877Z,22.80
2022-10-12T14:26:31.485Z,22.80
2022-10-12T14:29:01.281Z,22.70
2022-10-12T14:31:53.258Z,22.60
2022-10-12T14:34:41.159Z,22.70
2022-10-12T14:37:29.058Z,22.50
2022-10-12T14:40:02.598Z,22.70
2022-10-12T14:42:34.858Z,22.60
2022-10-12T14:45:07.566Z,22.30
2022-10-12T14:47:40.222Z,21.80
2022-10-12T14:50:10.390Z,20.60
2022-10-12T14:52:44.017Z,19.50
2022-10-12T14:55:17.213Z,18.40
2022-10-12T14:57:47.858Z,18.30
2022-10-12T15:00:17.610Z,17.90
2022-10-12T15:02:46.487Z,17.50
2022-10-12T15:05:22.342Z,19.10
2022-10-12T15:07:51.423Z,16.80
2022-10-12T15:10:24.426Z,16.40
2022-10-12T15:12:53.745Z,16.50
2022-10-12T15:15:35.026Z,16.10
2022-10-12T15:18:03.777Z,16.80
2022-10-12T15:20:33.657Z,16.30
2022-10-12T15:23:03.013Z,15.90
2022-10-12T15:25:45.849Z,16.00
2022-10-12T15:28:14.160Z,15.00
2022-10-12T15:31:04.186Z,16.80
2022-10-12T15:33:31.757Z,15.80
2022-10-12T15:36:00.038Z,15.70
2022-10-12T15:38:28.194Z,15.80
2022-10-12T15:40:58.295Z,14.80
2022-10-12T15:43:26.756Z,14.50
2022-10-12T15:45:56.435Z,15.70
2022-10-12T15:48:24.658Z,15.20
2022-10-12T15:50:53.146Z,14.60
2022-10-12T15:53:24.806Z,13.60
2022-10-12T15:55:53.491Z,13.90
2022-10-12T15:58:23.665Z,14.80
2022-10-12T16:00:52.247Z,14.80
2022-10-12T16:03:26.074Z,12.70
2022-10-12T16:05:54.903Z,12.60
2022-10-12T16:08:23.419Z,12.60
2022-10-12T16:10:52.060Z,11.80
2022-10-12T16:13:21.980Z,11.70
2022-10-12T16:15:50.402Z,12.80
2022-10-12T16:20:53.579Z,10.40
2022-10-12T16:23:25.636Z,10.60
2022-10-12T16:28:25.942Z,10.20
2022-10-12T16:30:54.637Z,12.20
2022-10-12T16:35:51.511Z,10.30
2022-10-12T16:38:20.734Z,8.90
2022-10-12T16:40:50.256Z,10.80
2022-10-12T16:43:19.411Z,9.10
2022-10-12T16:45:56.975Z,10.00
2022-10-12T16:50:55.057Z,8.80
2022-10-12T16:53:23.215Z,10.80
2022-10-12T16:55:51.388Z,10.10
2022-10-12T16:58:19.767Z,8.40
2022-10-12T17:00:49.343Z,9.40
2022-10-12T17:03:17.554Z,8.20
2022-10-12T17:05:45.702Z,8.30
2022-10-12T17:08:15.668Z,8.20
2022-10-12T17:10:45.376Z,8.20
2022-10-12T17:13:14.390Z,8.40
2022-10-12T17:15:43.397Z,10.70
2022-10-12T17:18:13.038Z,9.00
2022-10-12T17:20:41.211Z,9.10
2022-10-12T17:23:09.684Z,8.30
2022-10-12T17:25:37.893Z,7.70
2022-10-12T17:28:06.480Z,8.00
2022-10-12T17:33:06.504Z,10.20
2022-10-12T17:35:41.014Z,9.10
2022-10-12T17:38:09.257Z,7.80
2022-10-12T17:40:40.422Z,9.10
2022-10-12T17:43:08.591Z,10.60
2022-10-12T17:45:40.081Z,10.20
2022-10-12T17:48:08.279Z,7.70
2022-10-12T17:53:06.310Z,8.20
2022-10-12T17:58:17.819Z,8.50
2022-10-12T18:00:46.047Z,7.80
2022-10-12T18:05:44.201Z,9.10
2022-10-12T18:10:41.529Z,10.90
2022-10-12T18:13:10.537Z,9.20
2022-10-12T18:15:44.344Z,9.10
2022-10-12T18:20:45.127Z,9.40
2022-10-12T18:23:13.494Z,9.80
2022-10-12T18:25:43.058Z,9.20
2022-10-12T18:28:13.176Z,8.10
2022-10-12T18:30:51.168Z,8.00
2022-10-12T18:33:19.423Z,8.10
2022-10-12T18:35:49.121Z,9.10
2022-10-12T18:38:17.327Z,8.90
2022-10-12T18:43:15.723Z,10.80
2022-10-12T18:45:44.508Z,10.60
2022-10-12T18:50:41.900Z,10.70
2022-10-12T18:53:11.371Z,8.00
2022-10-12T18:55:40.015Z,10.40
2022-10-12T18:58:08.562Z,10.80
2022-10-12T19:00:36.761Z,8.00
2022-10-12T19:03:05.186Z,8.30
2022-10-12T19:08:01.831Z,9.00
2022-10-12T19:10:31.418Z,10.50
2022-10-12T19:12:59.903Z,8.10
2022-10-12T19:15:28.580Z,7.90
2022-10-12T19:17:56.731Z,8.20
2022-10-12T19:20:24.973Z,8.10
2022-10-12T19:25:22.048Z,8.10
2022-10-12T19:27:51.552Z,10.00
2022-10-12T19:30:19.735Z,8.80
2022-10-12T19:35:16.989Z,7.60
2022-10-12T19:42:42.916Z,7.40
2022-10-12T19:45:12.742Z,9.60
2022-10-12T19:47:40.863Z,10.10
2022-10-12T19:50:09.742Z,7.60
2022-10-12T19:52:37.938Z,7.30
2022-10-12T19:55:07.648Z,7.10
2022-10-12T20:02:42.928Z,7.60
2022-10-12T20:05:11.447Z,9.40
2022-10-12T20:07:40.145Z,6.50
2022-10-12T20:12:37.871Z,6.00
2022-10-12T20:15:07.923Z,6.20
2022-10-12T20:17:36.978Z,7.30
2022-10-12T20:20:07.848Z,8.80
2022-10-12T20:22:36.177Z,5.90
2022-10-12T20:25:09.400Z,5.50
2022-10-12T20:27:37.975Z,8.70
2022-10-12T20:30:07.863Z,6.90
2022-10-12T20:32:36.295Z,8.60
2022-10-12T20:35:07.270Z,5.30
2022-10-12T20:37:36.246Z,5.50
2022-10-12T20:42:33.519Z,5.00
2022-10-12T20:45:01.687Z,6.10
2022-10-12T20:47:29.834Z,4.80
2022-10-12T20:49:58.029Z,7.10
2022-10-12T20:54:56.226Z,8.70
2022-10-12T20:57:24.637Z,8.60
2022-10-12T20:59:52.850Z,8.10
2022-10-12T21:02:21.550Z,8.70
2022-10-12T21:04:51.144Z,5.20
2022-10-12T21:07:20.490Z,8.10
2022-10-12T21:09:52.063Z,6.90
2022-10-12T21:12:20.751Z,5.20
2022-10-12T21:14:49.478Z,6.40
2022-10-12T21:17:18.015Z,7.50
2022-10-12T21:19:46.151Z,5.30
2022-10-12T21:22:14.314Z,6.00
2022-10-12T21:24:42.823Z,8.90
2022-10-12T21:27:12.354Z,6.90
2022-10-12T21:29:40.448Z,8.50
2022-10-12T21:32:08.607Z,5.40
2022-10-12T21:34:36.742Z,8.30
2022-10-12T21:37:04.854Z,5.40
2022-10-12T21:39:32.958Z,5.70
2022-10-12T21:42:01.067Z,8.60
2022-10-12T21:44:30.689Z,5.00
2022-10-12T21:46:58.853Z,6.10
2022-10-12T21:49:26.970Z,7.70
2022-10-12T21:51:55.108Z,5.80
2022-10-12T21:56:51.767Z,4.60
2022-10-12T21:59:19.864Z,5.70
2022-10-12T22:01:49.466Z,6.30
2022-10-12T22:04:17.732Z,4.60
2022-10-12T22:06:45.888Z,5.40
2022-10-12T22:09:19.121Z,6.20
2022-10-12T22:14:19.119Z,6.30
2022-10-12T22:19:19.642Z,7.70
2022-10-12T22:24:17.779Z,8.10
2022-10-12T22:26:46.200Z,5.40
2022-10-12T22:31:44.389Z,4.70
2022-10-12T22:34:14.483Z,8.00
2022-10-12T22:36:44.051Z,6.60
2022-10-12T22:39:12.336Z,6.00
2022-10-12T22:41:42.241Z,7.60
2022-10-12T22:46:38.921Z,7.80
2022-10-12T22:49:07.061Z,5.90
2022-10-12T22:51:39.320Z,6.10
2022-10-12T22:54:08.677Z,6.70
2022-10-12T22:56:42.616Z,6.60
2022-10-12T22:59:16.003Z,6.40
2022-10-12T23:01:44.831Z,5.50
2022-10-12T23:04:13.210Z,6.00
2022-10-12T23:09:11.265Z,5.10
2022-10-12T23:11:39.505Z,4.50
2022-10-12T23:24:07.223Z,7.50
2022-10-12T23:26:36.034Z,7.40
2022-10-12T23:29:04.661Z,5.90
2022-10-12T23:31:35.487Z,4.70
2022-10-12T23:34:06.720Z,6.70
2022-10-12T23:36:35.449Z,5.40
2022-10-12T23:39:06.268Z,5.80
2022-10-12T23:41:34.832Z,5.40
2022-10-12T23:44:03.149Z,6.30
2022-10-12T23:49:00.184Z,4.40
2022-10-12T23:51:28.426Z,3.90
2022-10-12T23:56:26.583Z,5.30
